Time;durP1;ratioP1;P1;durP2;ratioP2;P2;SDS_P1;SDS_P2;PMS_P1;PMS_P2;Temp;Humidity;BMP_temperature;BMP_pressure;BME280_temperature;BME280_humidity;BME280_pressure;Samples;Min_cycle;Max_cycle;Signal;HPM_P1;HPM_P2
2023/06/08 00:00:39;;;;;;;12.52;11.20;;;13.00;99.90;;;;;;5053699;28;20029;-80
2023/06/08 00:03:06;;;;;;;16.92;11.40;;;12.90;99.90;;;;;;5052263;28;20017;-81
2023/06/08 00:05:31;;;;;;;12.75;11.45;;;12.90;99.90;;;;;;5052100;28;20390;-80
2023/06/08 00:07:57;;;;;;;13.90;11.63;;;12.80;99.90;;;;;;5084395;28;20036;-79
2023/06/08 00:10:23;;;;;;;12.90;10.80;;;12.80;99.90;;;;;;5093642;28;20469;-79
2023/06/08 00:12:49;;;;;;;13.13;11.05;;;12.80;99.90;;;;;;5092316;27;20027;-79
2023/06/08 00:15:17;;;;;;;13.82;11.68;;;12.80;99.90;;;;;;5092267;27;20027;-79
2023/06/08 00:17:43;;;;;;;12.63;11.15;;;12.70;99.90;;;;;;5092343;27;20024;-79
2023/06/08 00:20:09;;;;;;;12.60;9.48;;;12.60;99.90;;;;;;5093494;28;20028;-81
2023/06/08 00:22:36;;;;;;;12.70;10.10;;;12.60;99.90;;;;;;5092323;27;20023;-80
2023/06/08 00:25:03;;;;;;;11.57;9.85;;;12.50;99.90;;;;;;5093234;28;20028;-79
2023/06/08 00:27:29;;;;;;;12.50;10.57;;;12.50;99.90;;;;;;5093562;28;20040;-79
2023/06/08 00:29:55;;;;;;;11.68;9.85;;;12.50;99.90;;;;;;5093389;27;20353;-80
2023/06/08 00:32:21;;;;;;;12.00;10.63;;;12.50;99.90;;;;;;5092098;27;20108;-80
2023/06/08 00:34:47;;;;;;;9.88;8.88;;;12.40;99.90;;;;;;5093289;28;20070;-79
2023/06/08 00:37:12;;;;;;;9.57;8.57;;;12.40;99.90;;;;;;5093276;27;20020;-81
2023/06/08 00:39:38;;;;;;;11.88;10.23;;;12.30;99.90;;;;;;5093385;27;20028;-81
2023/06/08 00:42:05;;;;;;;10.20;9.05;;;12.30;99.90;;;;;;5093147;27;20024;-80
2023/06/08 00:44:31;;;;;;;9.88;8.88;;;12.20;99.90;;;;;;5091845;27;20028;-81
2023/06/08 00:46:57;;;;;;;11.10;9.82;;;12.10;99.90;;;;;;5091570;27;20032;-79
2023/06/08 00:49:22;;;;;;;13.07;11.00;;;12.10;99.90;;;;;;5091872;27;20394;-79
2023/06/08 00:51:48;;;;;;;10.65;8.25;;;12.10;99.90;;;;;;5091752;27;20027;-79
2023/06/08 00:54:15;;;;;;;11.57;9.30;;;12.10;99.90;;;;;;5081785;27;20025;-81
2023/06/08 00:56:42;;;;;;;11.25;9.63;;;12.00;99.90;;;;;;5051982;28;20057;-81
2023/06/08 00:59:09;;;;;;;13.07;10.23;;;12.00;99.90;;;;;;5051880;28;20044;-78
2023/06/08 01:01:35;;;;;;;11.60;9.90;;;12.00;99.90;;;;;;5050449;28;20032;-80
2023/06/08 01:04:09;;;;;;;12.10;9.50;;;12.10;99.90;;;;;;5068089;28;20482;-81
2023/06/08 01:06:44;;;;;;;9.50;8.50;;;12.00;99.90;;;;;;5071347;27;20028;-81
2023/06/08 01:09:48;;;;;;;9.70;8.45;;;11.90;99.90;;;;;;5072687;28;20076;-79
2023/06/08 01:12:29;;;;;;;9.38;8.48;;;11.90;99.90;;;;;;5097000;28;20024;-79
2023/06/08 01:14:57;;;;;;;9.93;8.32;;;11.80;99.90;;;;;;5073301;28;20032;-81
2023/06/08 01:17:32;;;;;;;7.55;6.90;;;11.80;99.90;;;;;;5082476;27;20020;-79
2023/06/08 01:20:10;;;;;;;7.75;6.97;;;11.70;99.90;;;;;;5092531;28;20020;-79
2023/06/08 01:22:57;;;;;;;7.78;7.10;;;11.60;99.90;;;;;;5091241;28;20083;-80
2023/06/08 01:25:30;;;;;;;7.13;6.53;;;11.50;99.90;;;;;;5092257;27;20073;-81
2023/06/08 01:28:15;;;;;;;6.88;6.25;;;11.40;99.90;;;;;;5091240;28;20043;-78
2023/06/08 01:30:45;;;;;;;8.85;7.68;;;11.40;99.90;;;;;;5088565;28;20072;-80
2023/06/08 01:33:14;;;;;;;8.25;7.45;;;11.30;99.90;;;;;;5071166;27;20029;-79
2023/06/08 01:35:40;;;;;;;8.23;7.30;;;11.30;99.90;;;;;;5071032;28;20061;-80
2023/06/08 01:38:28;;;;;;;7.80;6.40;;;11.30;99.90;;;;;;5072040;28;20104;-80
2023/06/08 01:40:57;;;;;;;11.18;7.93;;;11.30;99.90;;;;;;5072126;28;20430;-80
2023/06/08 01:43:26;;;;;;;9.20;8.30;;;11.30;99.90;;;;;;5070599;27;20056;-78
2023/06/08 01:45:59;;;;;;;11.40;9.30;;;11.30;99.90;;;;;;5071906;28;20029;-80
2023/06/08 01:48:28;;;;;;;9.80;8.30;;;11.30;99.90;;;;;;5070744;27;20541;-81
2023/06/08 01:50:54;;;;;;;10.70;8.43;;;11.30;99.90;;;;;;5070897;28;20028;-81
2023/06/08 01:53:20;;;;;;;11.77;9.65;;;11.20;99.90;;;;;;5072105;28;20045;-81
2023/06/08 01:55:49;;;;;;;11.57;9.00;;;11.20;99.90;;;;;;5071872;27;20029;-81
2023/06/08 01:58:15;;;;;;;11.10;8.50;;;11.20;99.90;;;;;;5071920;28;20429;-81
2023/06/08 02:00:41;;;;;;;12.02;9.05;;;11.20;99.90;;;;;;5070463;27;20084;-79
2023/06/08 02:03:06;;;;;;;11.05;8.80;;;11.20;99.90;;;;;;5071619;28;20021;-78
2023/06/08 02:05:32;;;;;;;12.48;9.25;;;11.10;99.90;;;;;;5071487;27;20025;-81
2023/06/08 02:07:58;;;;;;;10.80;8.35;;;11.10;99.90;;;;;;5071499;27;20072;-79
2023/06/08 02:10:23;;;;;;;9.27;8.32;;;11.10;99.90;;;;;;5071510;27;20029;-78
2023/06/08 02:12:49;;;;;;;9.00;7.78;;;11.00;99.90;;;;;;5070149;27;20062;-79
2023/06/08 02:15:15;;;;;;;7.63;6.93;;;11.00;99.90;;;;;;5071634;28;20024;-78
2023/06/08 02:17:42;;;;;;;7.50;6.78;;;10.90;99.90;;;;;;5071937;28;20027;-80
2023/06/08 02:20:09;;;;;;;7.13;6.43;;;10.90;99.90;;;;;;5071814;28;20145;-80
2023/06/08 02:22:36;;;;;;;7.47;6.72;;;10.80;99.90;;;;;;5070213;27;20017;-78
2023/06/08 02:25:07;;;;;;;8.85;6.65;;;10.80;99.90;;;;;;5071214;28;20021;-78
2023/06/08 02:27:36;;;;;;;7.10;6.22;;;10.70;99.90;;;;;;5071219;28;20040;-80
2023/06/08 02:30:02;;;;;;;7.32;6.50;;;10.60;99.90;;;;;;5071169;28;20021;-78
2023/06/08 02:32:32;;;;;;;8.25;7.45;;;10.60;99.90;;;;;;5071106;28;20392;-78
2023/06/08 02:35:05;;;;;;;5.97;5.38;;;10.60;99.90;;;;;;5071404;28;20085;-80
2023/06/08 02:37:36;;;;;;;6.80;6.03;;;10.50;99.90;;;;;;5070351;27;20549;-80
2023/06/08 02:40:04;;;;;;;6.18;5.65;;;10.50;99.90;;;;;;5071356;28;20020;-78
2023/06/08 02:42:30;;;;;;;7.25;6.55;;;10.50;99.90;;;;;;5069894;27;20059;-80
2023/06/08 02:44:55;;;;;;;8.20;7.32;;;10.50;99.90;;;;;;5069882;27;20029;-81
2023/06/08 02:47:21;;;;;;;8.57;7.78;;;10.50;99.90;;;;;;5069590;27;20043;-79
2023/06/08 02:49:46;;;;;;;7.00;6.40;;;10.60;99.90;;;;;;5069673;27;20053;-80
2023/06/08 02:52:12;;;;;;;13.10;11.07;;;10.70;99.90;;;;;;5069705;27;20033;-78
2023/06/08 02:54:38;;;;;;;19.45;13.95;;;10.90;99.90;;;;;;5070847;27;20021;-78
2023/06/08 02:57:03;;;;;;;17.70;14.80;;;11.40;99.90;;;;;;5069459;27;20059;-80
2023/06/08 02:59:31;;;;;;;18.65;14.05;;;11.80;99.90;;;;;;5071178;28;20099;-81
2023/06/08 03:01:57;;;;;;;22.05;14.73;;;12.00;99.90;;;;;;5071246;28;20028;-78
2023/06/08 03:04:24;;;;;;;16.38;12.85;;;12.20;99.90;;;;;;5069541;28;20527;-81
2023/06/08 03:06:53;;;;;;;15.15;12.65;;;12.50;99.90;;;;;;5070916;28;20393;-81
2023/06/08 03:09:29;;;;;;;19.40;13.32;;;12.70;99.90;;;;;;5069321;27;20027;-81
2023/06/08 03:11:56;;;;;;;19.48;14.18;;;12.90;99.90;;;;;;5069493;28;20017;-79
2023/06/08 03:14:28;;;;;;;20.08;12.70;;;13.00;99.90;;;;;;5070439;28;20462;-82
2023/06/08 03:17:03;;;;;;;18.83;13.90;;;13.10;99.90;;;;;;5069301;27;20378;-79
2023/06/08 03:19:32;;;;;;;18.60;13.13;;;13.30;99.90;;;;;;5069206;28;20069;-79
2023/06/08 03:22:00;;;;;;;15.73;12.60;;;13.40;99.90;;;;;;5070524;28;20446;-81
2023/06/08 03:24:28;;;;;;;14.50;11.60;;;13.50;99.90;;;;;;5070188;28;20025;-80
2023/06/08 03:26:55;;;;;;;12.63;10.98;;;13.60;99.90;;;;;;5069253;27;20048;-79
2023/06/08 03:29:21;;;;;;;12.98;11.63;;;13.80;99.90;;;;;;5069035;27;20025;-79
2023/06/08 03:31:47;;;;;;;21.35;11.27;;;14.00;99.90;;;;;;5070318;28;20057;-81
2023/06/08 03:34:13;;;;;;;15.57;11.05;;;14.10;99.90;;;;;;5070328;28;20025;-82
2023/06/08 03:36:39;;;;;;;15.65;12.10;;;14.30;99.90;;;;;;5069032;27;20052;-83
2023/06/08 03:39:05;;;;;;;14.70;12.07;;;14.40;99.90;;;;;;5070140;28;20027;-79
2023/06/08 03:41:31;;;;;;;15.15;13.15;;;14.60;99.90;;;;;;5068833;27;20021;-82
2023/06/08 03:43:57;;;;;;;15.57;11.85;;;14.70;99.90;;;;;;5070239;27;20443;-79
2023/06/08 03:46:22;;;;;;;15.30;12.02;;;14.80;99.90;;;;;;5070549;28;20036;-82
2023/06/08 03:48:48;;;;;;;18.33;12.43;;;14.90;99.90;;;;;;5070288;28;20039;-79
2023/06/08 03:51:15;;;;;;;15.00;11.88;;;15.10;99.90;;;;;;5068666;27;20024;-82
2023/06/08 03:53:41;;;;;;;14.55;12.50;;;15.30;99.90;;;;;;5068960;27;20061;-79
2023/06/08 03:56:06;;;;;;;14.85;11.68;;;15.40;99.90;;;;;;5069811;27;20124;-81
2023/06/08 03:58:32;;;;;;;19.00;12.02;;;15.50;99.90;;;;;;5069972;27;20020;-80
2023/06/08 04:00:58;;;;;;;12.75;11.45;;;15.50;99.90;;;;;;5068511;27;20050;-80
2023/06/08 04:03:25;;;;;;;17.30;12.60;;;15.60;99.90;;;;;;5069851;28;20025;-79
2023/06/08 04:05:51;;;;;;;12.98;11.52;;;15.80;99.90;;;;;;5068505;27;20036;-79
2023/06/08 04:08:20;;;;;;;13.25;11.85;;;15.80;99.90;;;;;;5069729;27;20073;-81
2023/06/08 04:10:45;;;;;;;13.07;11.68;;;15.90;99.90;;;;;;5072440;27;20119;-79
2023/06/08 04:13:11;;;;;;;15.10;11.23;;;16.00;99.90;;;;;;5068203;27;20132;-79
2023/06/08 04:15:36;;;;;;;13.35;11.55;;;16.00;99.90;;;;;;5062271;27;20018;-79
2023/06/08 04:18:03;;;;;;;11.18;10.00;;;16.00;99.90;;;;;;5057360;27;20104;-79
2023/06/08 04:20:28;;;;;;;12.07;10.82;;;16.10;99.90;;;;;;5120298;27;20041;-79
2023/06/08 04:22:54;;;;;;;13.82;10.90;;;16.10;99.90;;;;;;5088550;27;20020;-79
2023/06/08 04:25:24;;;;;;;11.95;10.82;;;16.20;99.90;;;;;;5089204;28;20052;-79
2023/06/08 04:27:51;;;;;;;13.80;11.77;;;16.30;99.90;;;;;;5089546;28;20127;-80
2023/06/08 04:30:18;;;;;;;13.57;10.98;;;16.30;99.90;;;;;;5088787;27;20024;-79
2023/06/08 04:32:43;;;;;;;13.25;10.73;;;16.20;99.90;;;;;;5088406;27;20433;-79
2023/06/08 04:35:09;;;;;;;10.77;9.68;;;16.30;99.90;;;;;;5089481;27;20059;-80
2023/06/08 04:37:35;;;;;;;15.85;10.70;;;16.10;99.90;;;;;;5091734;27;20361;-79
2023/06/08 04:40:04;;;;;;;12.45;10.02;;;16.10;99.90;;;;;;5092831;28;20056;-80
2023/06/08 04:42:33;;;;;;;13.98;11.25;;;15.90;99.90;;;;;;5091757;27;20024;-80
2023/06/08 04:45:00;;;;;;;12.75;10.55;;;16.00;99.90;;;;;;5092718;28;20028;-79
2023/06/08 04:47:29;;;;;;;12.32;11.02;;;15.90;99.90;;;;;;5091612;27;20036;-79
2023/06/08 04:49:56;;;;;;;17.42;11.80;;;15.90;99.90;;;;;;5092638;28;20107;-79
2023/06/08 04:52:22;;;;;;;14.52;11.63;;;15.80;99.90;;;;;;5092771;28;20028;-79
2023/06/08 04:54:52;;;;;;;15.98;11.43;;;15.80;99.90;;;;;;5084823;27;20024;-79
2023/06/08 04:57:21;;;;;;;15.65;11.43;;;15.80;99.90;;;;;;5092496;28;20032;-79
2023/06/08 04:59:47;;;;;;;19.17;13.10;;;15.80;99.90;;;;;;5091312;27;20437;-79
2023/06/08 05:02:13;;;;;;;14.82;10.75;;;15.90;99.90;;;;;;5092094;28;20016;-80
2023/06/08 05:04:38;;;;;;;13.20;10.55;;;15.90;99.90;;;;;;5090536;27;20028;-79
2023/06/08 05:07:04;;;;;;;13.90;10.43;;;16.00;99.90;;;;;;5090966;27;20488;-79
2023/06/08 05:09:30;;;;;;;11.80;10.60;;;16.00;99.90;;;;;;5092291;28;20031;-79
2023/06/08 05:11:55;;;;;;;13.27;10.15;;;15.90;99.90;;;;;;5091038;27;20103;-79
2023/06/08 05:14:21;;;;;;;10.52;9.45;;;15.90;99.90;;;;;;5091123;27;20020;-79
2023/06/08 05:16:47;;;;;;;11.57;9.27;;;15.90;99.90;;;;;;5092441;27;20359;-79
2023/06/08 05:19:13;;;;;;;16.08;10.27;;;15.90;99.90;;;;;;5092179;27;20035;-79
2023/06/08 05:21:40;;;;;;;10.90;9.35;;;15.90;99.90;;;;;;5092238;28;20024;-79
2023/06/08 05:24:06;;;;;;;11.85;9.75;;;15.80;99.90;;;;;;5092325;28;20017;-79
2023/06/08 05:26:32;;;;;;;13.27;10.50;;;15.80;99.90;;;;;;5079525;27;20045;-79
2023/06/08 05:29:01;;;;;;;11.65;10.40;;;15.80;99.90;;;;;;5051874;28;20158;-80
2023/06/08 05:31:27;;;;;;;11.18;9.65;;;15.90;99.90;;;;;;5051125;28;20390;-80
2023/06/08 05:33:53;;;;;;;13.65;10.88;;;15.90;99.90;;;;;;5051753;28;20037;-80
2023/06/08 05:36:18;;;;;;;12.52;10.75;;;16.00;99.90;;;;;;5050866;28;20017;-80
2023/06/08 05:38:44;;;;;;;11.48;9.32;;;15.90;99.90;;;;;;5051743;28;20109;-80
2023/06/08 05:41:10;;;;;;;12.70;9.85;;;15.90;99.90;;;;;;5051447;28;20021;-80
2023/06/08 05:43:35;;;;;;;10.63;9.52;;;16.00;99.90;;;;;;5050325;28;20029;-79
2023/06/08 05:46:04;;;;;;;13.70;10.32;;;16.20;99.90;;;;;;5051300;28;20025;-80
2023/06/08 05:48:35;;;;;;;11.25;9.57;;;16.30;99.90;;;;;;5050161;28;20386;-80
2023/06/08 05:51:03;;;;;;;11.95;9.52;;;16.40;99.90;;;;;;5051577;28;20027;-81
2023/06/08 05:53:32;;;;;;;9.80;8.80;;;16.50;99.90;;;;;;5050026;28;20462;-81
2023/06/08 05:55:57;;;;;;;10.55;8.65;;;16.60;99.90;;;;;;5051702;28;20033;-81
2023/06/08 05:58:24;;;;;;;7.70;6.90;;;16.80;99.90;;;;;;5155167;27;20030;-81
2023/06/08 06:00:52;;;;;;;8.63;7.13;;;16.80;99.90;;;;;;5156164;27;20026;-81
2023/06/08 06:03:19;;;;;;;8.00;6.55;;;16.80;99.90;;;;;;5155766;27;20019;-81
2023/06/08 06:05:45;;;;;;;8.40;6.97;;;16.90;99.90;;;;;;5155218;27;20095;-81
2023/06/08 06:08:10;;;;;;;8.80;6.35;;;16.90;99.90;;;;;;5154883;27;20476;-81
2023/06/08 06:10:36;;;;;;;7.57;6.70;;;16.90;99.90;;;;;;5156129;27;20031;-81
2023/06/08 06:13:02;;;;;;;9.00;7.40;;;17.00;99.90;;;;;;5154817;27;20064;-81
2023/06/08 06:15:28;;;;;;;10.20;7.65;;;17.30;99.90;;;;;;5154591;27;20113;-81
2023/06/08 06:17:54;;;;;;;9.57;7.80;;;17.10;99.90;;;;;;5155472;27;20536;-81
2023/06/08 06:20:19;;;;;;;9.63;7.65;;;17.20;99.90;;;;;;5155968;27;20022;-81
2023/06/08 06:22:45;;;;;;;10.38;9.30;;;17.20;99.90;;;;;;5155798;27;20019;-81
2023/06/08 06:25:10;;;;;;;12.60;9.93;;;17.50;99.90;;;;;;5154205;27;20507;-82
2023/06/08 06:27:36;;;;;;;11.20;9.80;;;17.40;99.90;;;;;;5155765;27;20115;-81
2023/06/08 06:30:02;;;;;;;13.55;11.40;;;17.40;99.90;;;;;;5154532;27;20391;-81
2023/06/08 06:32:28;;;;;;;14.02;10.15;;;17.70;99.90;;;;;;5099139;27;20024;-81
2023/06/08 06:34:53;;;;;;;13.50;11.45;;;17.80;99.90;;;;;;5048685;27;20029;-81
2023/06/08 06:37:19;;;;;;;16.23;12.30;;;17.80;99.90;;;;;;5069308;27;20020;-80
2023/06/08 06:39:45;;;;;;;11.88;10.68;;;17.60;99.90;;;;;;5054201;27;20493;-80
2023/06/08 06:42:10;;;;;;;13.00;11.63;;;17.40;99.90;;;;;;5050650;28;20021;-80
2023/06/08 06:44:36;;;;;;;12.07;10.88;;;17.30;99.90;;;;;;5049331;28;20504;-81
2023/06/08 06:47:02;;;;;;;11.88;10.60;;;17.30;99.90;;;;;;5049810;28;20036;-80
2023/06/08 06:49:27;;;;;;;12.35;11.00;;;17.30;99.90;;;;;;5050527;28;20057;-80
2023/06/08 06:51:53;;;;;;;11.82;9.82;;;17.30;99.90;;;;;;5049254;28;20017;-80
2023/06/08 06:54:18;;;;;;;11.13;9.30;;;17.10;99.90;;;;;;5056998;28;20021;-81
2023/06/08 06:56:44;;;;;;;11.63;10.00;;;16.90;99.90;;;;;;5069668;27;20032;-80
2023/06/08 06:59:10;;;;;;;10.80;9.05;;;16.90;99.90;;;;;;5069344;28;20060;-81
2023/06/08 07:01:35;;;;;;;10.13;9.00;;;16.90;99.90;;;;;;5069939;28;20024;-81
2023/06/08 07:04:05;;;;;;;11.00;8.93;;;16.80;99.90;;;;;;5070410;28;20031;-81
2023/06/08 07:06:31;;;;;;;14.07;10.80;;;17.00;99.90;;;;;;5052323;28;20037;-80
2023/06/08 07:08:57;;;;;;;11.55;9.73;;;17.00;99.90;;;;;;5069057;27;20012;-80
2023/06/08 07:11:23;;;;;;;12.45;10.55;;;17.00;99.90;;;;;;5068923;28;20153;-80
2023/06/08 07:13:48;;;;;;;12.95;10.75;;;17.00;99.90;;;;;;5069059;27;20048;-80
2023/06/08 07:16:14;;;;;;;13.25;11.27;;;17.10;99.90;;;;;;5069630;27;20384;-81
2023/06/08 07:18:40;;;;;;;11.40;9.52;;;17.10;99.90;;;;;;5069054;27;20493;-81
2023/06/08 07:21:06;;;;;;;10.45;9.35;;;17.20;99.90;;;;;;5068809;28;20031;-80
2023/06/08 07:23:31;;;;;;;10.15;9.05;;;17.40;99.90;;;;;;5070122;28;20435;-81
2023/06/08 07:25:57;;;;;;;13.43;9.90;;;17.40;99.90;;;;;;5052934;27;20406;-81
2023/06/08 07:28:23;;;;;;;12.32;10.25;;;17.50;99.90;;;;;;5050081;28;20041;-82
2023/06/08 07:30:49;;;;;;;12.30;10.07;;;17.60;99.90;;;;;;5048253;28;20099;-82
2023/06/08 07:33:15;;;;;;;14.02;11.20;;;17.60;99.90;;;;;;5048835;28;20021;-82
2023/06/08 07:35:41;;;;;;;11.50;9.98;;;17.50;99.90;;;;;;5050099;28;20025;-80
2023/06/08 07:38:07;;;;;;;12.45;10.43;;;17.60;99.90;;;;;;5048773;28;20025;-81
2023/06/08 07:40:32;;;;;;;14.75;11.20;;;17.60;99.90;;;;;;5048576;28;20470;-82
2023/06/08 07:42:58;;;;;;;11.90;10.63;;;17.60;99.90;;;;;;5048672;28;20033;-81
2023/06/08 07:45:24;;;;;;;14.02;11.48;;;17.50;99.90;;;;;;5048121;28;20060;-81
2023/06/08 07:47:50;;;;;;;14.23;11.88;;;17.50;99.90;;;;;;5048503;28;20123;-81
2023/06/08 07:50:16;;;;;;;12.82;9.95;;;17.50;99.90;;;;;;5050719;28;20112;-80
2023/06/08 07:52:41;;;;;;;16.50;12.05;;;17.40;99.90;;;;;;5067537;28;20117;-80
2023/06/08 07:55:07;;;;;;;15.10;11.40;;;17.40;99.90;;;;;;5067913;27;20561;-80
2023/06/08 07:57:36;;;;;;;14.15;12.18;;;17.40;99.90;;;;;;5067992;27;20017;-82
2023/06/08 08:00:03;;;;;;;17.67;14.20;;;17.50;99.90;;;;;;5068711;28;20777;-81
2023/06/08 08:02:29;;;;;;;16.38;13.63;;;17.40;99.90;;;;;;5063679;27;20016;-80
2023/06/08 08:04:55;;;;;;;18.48;13.02;;;17.40;99.90;;;;;;5067927;28;20024;-81
2023/06/08 08:07:20;;;;;;;18.35;13.90;;;17.40;99.90;;;;;;5066073;27;20039;-81
2023/06/08 08:09:47;;;;;;;19.20;15.50;;;17.30;99.90;;;;;;5067623;27;20520;-81
2023/06/08 08:12:12;;;;;;;19.35;14.40;;;17.30;99.90;;;;;;5077942;28;20526;-81
2023/06/08 08:14:39;;;;;;;21.65;15.88;;;17.10;99.90;;;;;;5071476;27;20033;-81
2023/06/08 08:17:05;;;;;;;19.25;15.20;;;17.10;99.90;;;;;;5071668;28;20080;-80
2023/06/08 08:19:31;;;;;;;19.30;15.40;;;17.10;99.90;;;;;;5071928;28;20064;-80
2023/06/08 08:21:57;;;;;;;17.63;14.57;;;17.10;99.90;;;;;;5072282;28;20108;-80
2023/06/08 08:24:22;;;;;;;19.52;14.23;;;17.10;99.90;;;;;;5068969;27;20029;-80
2023/06/08 08:26:52;;;;;;;18.80;14.85;;;17.20;99.90;;;;;;5071877;27;20053;-80
2023/06/08 08:29:17;;;;;;;18.60;14.02;;;17.30;99.90;;;;;;5070365;28;20040;-80
2023/06/08 08:31:43;;;;;;;18.20;14.77;;;17.40;99.90;;;;;;5071644;27;20024;-80
2023/06/08 08:34:11;;;;;;;19.45;15.73;;;17.50;99.90;;;;;;5070616;27;20039;-81
2023/06/08 08:36:38;;;;;;;17.25;14.80;;;17.50;99.90;;;;;;5070757;27;20104;-81
2023/06/08 08:39:03;;;;;;;18.60;14.93;;;17.60;99.90;;;;;;5070522;28;20073;-81
2023/06/08 08:41:32;;;;;;;18.42;14.60;;;17.80;99.90;;;;;;5072111;28;20032;-80
2023/06/08 08:44:01;;;;;;;19.35;15.23;;;17.70;99.90;;;;;;5070896;27;20047;-81
2023/06/08 08:46:30;;;;;;;18.48;14.68;;;17.80;99.90;;;;;;5069611;28;20120;-80
2023/06/08 08:49:00;;;;;;;18.02;13.38;;;17.90;99.90;;;;;;5071401;28;20017;-81
2023/06/08 08:51:28;;;;;;;24.23;16.70;;;17.90;99.90;;;;;;5071641;28;20020;-80
2023/06/08 08:53:55;;;;;;;18.67;15.10;;;17.90;99.90;;;;;;5070547;28;20107;-80
2023/06/08 08:56:22;;;;;;;19.45;15.45;;;17.80;99.90;;;;;;5070240;27;20084;-80
2023/06/08 08:58:53;;;;;;;20.98;16.95;;;17.70;99.90;;;;;;5065361;27;20021;-81
2023/06/08 09:01:19;;;;;;;21.67;16.25;;;17.70;99.90;;;;;;5052036;27;20037;-81
2023/06/08 09:03:48;;;;;;;21.73;17.65;;;18.00;99.90;;;;;;5071100;27;20048;-81
2023/06/08 09:06:14;;;;;;;22.77;17.27;;;18.10;99.90;;;;;;5070658;27;20071;-81
2023/06/08 09:08:40;;;;;;;17.35;14.02;;;18.30;99.90;;;;;;5071172;27;20044;-80
2023/06/08 09:11:09;;;;;;;18.92;14.68;;;18.50;99.90;;;;;;5087724;27;20110;-81
2023/06/08 09:13:35;;;;;;;16.70;14.48;;;18.70;99.80;;;;;;5176905;27;20109;-81
2023/06/08 09:16:23;;;;;;;18.02;14.70;;;18.70;96.90;;;;;;5139973;27;20045;-81
2023/06/08 09:19:05;;;;;;;19.67;14.68;;;18.60;98.70;;;;;;5067148;27;20508;-81
2023/06/08 09:21:32;;;;;;;19.83;14.55;;;18.70;99.90;;;;;;5051718;27;20037;-81
2023/06/08 09:24:11;;;;;;;19.30;14.10;;;18.70;99.90;;;;;;5052842;27;20549;-81
2023/06/08 09:26:47;;;;;;;15.43;13.30;;;19.20;98.70;;;;;;5060620;27;20052;-81
2023/06/08 09:29:30;;;;;;;15.82;13.38;;;19.60;92.40;;;;;;5174072;27;20038;-82
2023/06/08 09:31:55;;;;;;;16.65;12.85;;;20.00;87.90;;;;;;5173774;27;20117;-82
2023/06/08 09:34:21;;;;;;;17.55;13.38;;;20.30;82.00;;;;;;5175380;27;20440;-81
2023/06/08 09:36:49;;;;;;;13.57;12.18;;;20.60;80.20;;;;;;5175856;27;20030;-81
2023/06/08 09:39:15;;;;;;;13.25;11.60;;;20.40;78.40;;;;;;5174789;27;20022;-82
2023/06/08 09:41:55;;;;;;;14.18;10.88;;;20.60;78.10;;;;;;5175390;27;20049;-82
2023/06/08 09:44:21;;;;;;;15.55;13.13;;;20.70;76.10;;;;;;5175494;27;20018;-80
2023/06/08 09:46:48;;;;;;;13.93;12.38;;;20.50;77.10;;;;;;5093173;27;20045;-83
2023/06/08 09:49:15;;;;;;;13.57;11.43;;;20.50;77.40;;;;;;5050751;28;20074;-83
2023/06/08 09:51:51;;;;;;;11.70;10.27;;;20.60;77.50;;;;;;5049397;28;20040;-82
2023/06/08 09:54:21;;;;;;;11.88;10.27;;;20.40;76.30;;;;;;5050958;28;20103;-82
2023/06/08 09:56:57;;;;;;;11.05;9.95;;;20.50;76.30;;;;;;5138422;27;20041;-82
2023/06/08 09:59:30;;;;;;;12.60;10.45;;;20.40;75.70;;;;;;5176339;27;20026;-80
2023/06/08 10:02:00;;;;;;;20.55;11.27;;;20.40;79.20;;;;;;5102542;27;20495;-82
2023/06/08 10:04:44;;;;;;;11.10;9.55;;;20.30;78.50;;;;;;5049154;28;20029;-80
2023/06/08 10:07:17;;;;;;;11.52;9.52;;;20.70;78.50;;;;;;5050157;28;20041;-81
2023/06/08 10:09:44;;;;;;;;;;;20.90;75.40;;;;;;5051055;28;20486;-80
2023/06/08 10:12:10;;;;;;;11.40;9.35;;;20.80;71.90;;;;;;5048678;28;19905;-81
2023/06/08 10:14:36;;;;;;;11.82;9.45;;;20.70;73.60;;;;;;5049020;28;20029;-81
2023/06/08 10:17:02;;;;;;;13.10;9.68;;;20.60;74.80;;;;;;5048238;28;20459;-81
2023/06/08 10:19:32;;;;;;;10.38;9.38;;;20.70;75.30;;;;;;5048967;28;20025;-81
2023/06/08 10:21:58;;;;;;;10.20;8.82;;;20.70;74.80;;;;;;5048885;28;20041;-81
2023/06/08 10:24:26;;;;;;;12.02;9.77;;;20.90;75.10;;;;;;5048861;28;20039;-81
2023/06/08 10:27:15;;;;;;;10.95;9.32;;;20.70;76.00;;;;;;5048634;28;20045;-81
2023/06/08 10:29:55;;;;;;;12.13;10.00;;;20.80;76.10;;;;;;5050208;28;20028;-81
2023/06/08 10:32:30;;;;;;;12.32;10.43;;;20.70;75.90;;;;;;5048217;28;20045;-80
2023/06/08 10:34:58;;;;;;;12.68;10.95;;;20.80;78.20;;;;;;5048031;28;20028;-81
2023/06/08 10:37:31;;;;;;;13.60;10.05;;;20.60;76.50;;;;;;5048349;27;20033;-81
2023/06/08 10:40:06;;;;;;;10.90;9.65;;;20.70;76.90;;;;;;5048828;27;20359;-81
2023/06/08 10:42:32;;;;;;;13.32;10.27;;;20.70;76.20;;;;;;5048377;28;20057;-80
2023/06/08 10:44:59;;;;;;;11.68;10.40;;;20.50;77.80;;;;;;5048486;27;20494;-77
2023/06/08 10:47:26;;;;;;;10.25;9.13;;;20.30;79.60;;;;;;5048905;28;20502;-81
2023/06/08 10:50:02;;;;;;;12.15;9.43;;;20.30;78.10;;;;;;5048660;28;20048;-81
2023/06/08 10:52:37;;;;;;;9.95;9.02;;;20.40;77.80;;;;;;5048268;28;20083;-81
2023/06/08 10:55:11;;;;;;;10.77;9.65;;;20.40;77.50;;;;;;5060192;27;20017;-81
2023/06/08 10:57:52;;;;;;;11.10;8.85;;;20.30;77.50;;;;;;5068109;28;20397;-81
2023/06/08 11:00:28;;;;;;;10.25;9.15;;;20.40;78.10;;;;;;5068799;28;20541;-81
2023/06/08 11:02:57;;;;;;;10.52;8.88;;;20.70;78.00;;;;;;5066930;28;20029;-81
2023/06/08 11:05:23;;;;;;;9.77;8.77;;;20.40;76.90;;;;;;5068224;28;20115;-81
2023/06/08 11:07:52;;;;;;;9.43;8.18;;;20.60;75.90;;;;;;5067695;28;20123;-81
2023/06/08 11:10:20;;;;;;;10.68;8.25;;;20.30;74.70;;;;;;5067712;28;20025;-81
2023/06/08 11:12:46;;;;;;;11.75;8.80;;;20.40;74.70;;;;;;5068110;28;20164;-81
2023/06/08 11:15:12;;;;;;;9.27;8.20;;;20.60;74.60;;;;;;5066762;28;20048;-81
2023/06/08 11:17:43;;;;;;;8.32;7.53;;;20.30;76.60;;;;;;5065596;28;20120;-81
2023/06/08 11:20:10;;;;;;;10.63;8.87;;;20.50;75.30;;;;;;5068980;28;20016;-81
2023/06/08 11:22:39;;;;;;;10.23;8.45;;;20.60;74.90;;;;;;5067634;28;20289;-81
2023/06/08 11:25:07;;;;;;;9.00;7.97;;;20.60;75.60;;;;;;5068119;28;20041;-80
2023/06/08 11:27:33;;;;;;;10.05;9.05;;;20.60;75.80;;;;;;5068928;28;20177;-80
2023/06/08 11:29:58;;;;;;;11.77;9.52;;;20.80;77.60;;;;;;5068659;28;20100;-80
2023/06/08 11:32:26;;;;;;;10.73;8.10;;;20.90;74.80;;;;;;5067314;28;20037;-81
2023/06/08 11:34:53;;;;;;;9.07;7.80;;;21.00;73.50;;;;;;5069351;28;20044;-80
2023/06/08 11:37:19;;;;;;;8.52;7.18;;;21.30;73.00;;;;;;5068632;28;20036;-80
2023/06/08 11:39:45;;;;;;;10.93;8.35;;;21.20;69.20;;;;;;5067946;28;20020;-81
2023/06/08 11:42:11;;;;;;;9.07;8.07;;;21.30;70.30;;;;;;5068676;28;20029;-80
2023/06/08 11:44:36;;;;;;;9.77;7.95;;;20.80;72.50;;;;;;5069282;28;20028;-80
2023/06/08 11:47:04;;;;;;;8.10;7.30;;;20.70;73.30;;;;;;5056952;28;20056;-80
2023/06/08 11:49:52;;;;;;;9.15;8.10;;;20.80;74.10;;;;;;5052407;28;20052;-80
2023/06/08 11:52:17;;;;;;;9.45;8.27;;;20.80;72.10;;;;;;5052254;28;20061;-80
2023/06/08 11:54:43;;;;;;;11.38;8.20;;;20.80;72.00;;;;;;5052644;28;20045;-79
2023/06/08 11:57:09;;;;;;;12.00;8.27;;;21.20;72.90;;;;;;5050962;28;20036;-80
2023/06/08 11:59:41;;;;;;;8.30;7.50;;;21.40;70.90;;;;;;5057669;27;20037;-79
2023/06/08 12:02:10;;;;;;;8.60;7.22;;;21.50;69.50;;;;;;5053518;27;20033;-80
2023/06/08 12:04:36;;;;;;;7.70;6.97;;;21.50;67.70;;;;;;5053855;27;20082;-80
2023/06/08 12:07:20;;;;;;;7.82;7.03;;;21.40;68.50;;;;;;5081207;27;20045;-80
2023/06/08 12:09:49;;;;;;;8.40;6.90;;;21.20;68.30;;;;;;5178835;27;20483;-80
2023/06/08 12:12:15;;;;;;;8.60;7.40;;;21.00;68.60;;;;;;5176251;27;20109;-80
2023/06/08 12:14:46;;;;;;;7.82;7.10;;;21.00;69.20;;;;;;5177282;27;20101;-80
2023/06/08 12:17:15;;;;;;;7.03;6.32;;;21.10;70.40;;;;;;5176233;27;20435;-80
2023/06/08 12:19:50;;;;;;;6.68;5.95;;;21.20;69.80;;;;;;5176703;27;20478;-80
2023/06/08 12:22:16;;;;;;;8.18;7.38;;;21.30;69.30;;;;;;5178463;27;20554;-81
2023/06/08 12:24:42;;;;;;;8.00;7.20;;;21.20;69.80;;;;;;5178848;27;20075;-80
2023/06/08 12:27:08;;;;;;;7.65;6.85;;;21.10;70.50;;;;;;5158131;27;20034;-81
2023/06/08 12:29:34;;;;;;;9.48;7.00;;;21.20;70.20;;;;;;5178217;27;20030;-80
2023/06/08 12:32:00;;;;;;;7.88;6.65;;;21.00;71.50;;;;;;5178218;27;20030;-80
2023/06/08 12:34:30;;;;;;;8.63;6.72;;;20.80;71.30;;;;;;5050985;27;20473;-80
2023/06/08 12:36:56;;;;;;;9.32;7.25;;;20.60;72.60;;;;;;5068113;27;20020;-80
2023/06/08 12:39:22;;;;;;;10.07;6.85;;;20.70;73.40;;;;;;5072742;27;20022;-79